sensor_id;sensor_type;location;lat;lon;timestamp;temperature;humidity
31038;DHT22;17702;47.590;7.666;2024-03-02T00:00:18;9.10;99.90
31038;DHT22;17702;47.590;7.666;2024-03-02T00:02:50;9.20;99.90
31038;DHT22;17702;47.590;7.666;2024-03-02T00:05:18;9.30;99.90
31038;DHT22;17702;47.590;7.666;2024-03-02T00:07:45;9.30;99.90
31038;DHT22;17702;47.590;7.666;2024-03-02T00:10:13;9.20;99.90
31038;DHT22;17702;47.590;7.666;2024-03-02T00:12:39;9.30;99.90
31038;DHT22;17702;47.590;7.666;2024-03-02T00:17:54;9.30;99.90
31038;DHT22;17702;47.590;7.666;2024-03-02T00:20:23;9.20;99.90
31038;DHT22;17702;47.590;7.666;2024-03-02T00:22:49;9.20;99.90
31038;DHT22;17702;47.590;7.666;2024-03-02T00:25:16;9.10;99.90
31038;DHT22;17702;47.590;7.666;2024-03-02T00:27:41;9.00;99.90
31038;DHT22;17702;47.590;7.666;2024-03-02T00:30:46;9.00;99.90
31038;DHT22;17702;47.590;7.666;2024-03-02T00:33:16;8.90;99.90
31038;DHT22;17702;47.590;7.666;2024-03-02T00:35:44;8.90;99.90
31038;DHT22;17702;47.590;7.666;2024-03-02T00:38:10;9.00;99.90
31038;DHT22;17702;47.590;7.666;2024-03-02T00:40:35;9.00;99.90
31038;DHT22;17702;47.590;7.666;2024-03-02T00:43:02;9.00;99.90
31038;DHT22;17702;47.590;7.666;2024-03-02T00:45:28;9.00;99.90
31038;DHT22;17702;47.590;7.666;2024-03-02T00:47:54;9.00;99.90
31038;DHT22;17702;47.590;7.666;2024-03-02T00:50:20;8.90;99.90
31038;DHT22;17702;47.590;7.666;2024-03-02T00:52:46;8.90;99.90
31038;DHT22;17702;47.590;7.666;2024-03-02T00:55:14;8.80;99.90
31038;DHT22;17702;47.590;7.666;2024-03-02T00:57:40;8.90;99.90
31038;DHT22;17702;47.590;7.666;2024-03-02T01:00:06;8.90;99.90
31038;DHT22;17702;47.590;7.666;2024-03-02T01:02:35;8.90;99.90
31038;DHT22;17702;47.590;7.666;2024-03-02T01:05:01;8.90;99.90
31038;DHT22;17702;47.590;7.666;2024-03-02T01:07:26;8.90;99.90
31038;DHT22;17702;47.590;7.666;2024-03-02T01:09:52;8.90;99.90
31038;DHT22;17702;47.590;7.666;2024-03-02T01:12:18;8.90;99.90
31038;DHT22;17702;47.590;7.666;2024-03-02T01:14:43;8.90;99.90
31038;DHT22;17702;47.590;7.666;2024-03-02T01:17:09;8.90;99.90
31038;DHT22;17702;47.590;7.666;2024-03-02T01:19:34;8.90;99.90
31038;DHT22;17702;47.590;7.666;2024-03-02T01:22:00;9.00;99.90
31038;DHT22;17702;47.590;7.666;2024-03-02T01:24:25;9.00;99.90
31038;DHT22;17702;47.590;7.666;2024-03-02T01:26:51;9.10;99.90
31038;DHT22;17702;47.590;7.666;2024-03-02T01:29:16;9.10;99.90
31038;DHT22;17702;47.590;7.666;2024-03-02T01:31:42;9.00;99.90
31038;DHT22;17702;47.590;7.666;2024-03-02T01:34:08;9.00;99.90
31038;DHT22;17702;47.590;7.666;2024-03-02T01:36:33;8.90;99.90
31038;DHT22;17702;47.590;7.666;2024-03-02T01:38:59;8.90;99.90
31038;DHT22;17702;47.590;7.666;2024-03-02T01:41:25;8.90;99.90
31038;DHT22;17702;47.590;7.666;2024-03-02T01:43:50;8.90;99.90
31038;DHT22;17702;47.590;7.666;2024-03-02T01:46:16;8.90;99.90
31038;DHT22;17702;47.590;7.666;2024-03-02T01:48:42;8.90;99.90
31038;DHT22;17702;47.590;7.666;2024-03-02T01:51:07;8.90;99.90
31038;DHT22;17702;47.590;7.666;2024-03-02T01:53:34;8.90;99.90
31038;DHT22;17702;47.590;7.666;2024-03-02T01:56:00;8.90;99.90
31038;DHT22;17702;47.590;7.666;2024-03-02T01:58:27;8.90;99.90
31038;DHT22;17702;47.590;7.666;2024-03-02T02:00:52;8.90;99.90
31038;DHT22;17702;47.590;7.666;2024-03-02T02:03:18;8.80;99.90
31038;DHT22;17702;47.590;7.666;2024-03-02T02:05:44;8.80;99.90
31038;DHT22;17702;47.590;7.666;2024-03-02T02:08:09;8.70;99.90
31038;DHT22;17702;47.590;7.666;2024-03-02T02:10:36;8.60;99.90
31038;DHT22;17702;47.590;7.666;2024-03-02T02:13:01;8.60;99.90
31038;DHT22;17702;47.590;7.666;2024-03-02T02:15:30;8.50;99.90
31038;DHT22;17702;47.590;7.666;2024-03-02T02:17:57;8.60;99.90
31038;DHT22;17702;47.590;7.666;2024-03-02T02:20:23;8.60;99.90
31038;DHT22;17702;47.590;7.666;2024-03-02T02:23:00;8.60;99.90
31038;DHT22;17702;47.590;7.666;2024-03-02T02:25:27;8.60;99.90
31038;DHT22;17702;47.590;7.666;2024-03-02T02:27:53;8.60;99.90
31038;DHT22;17702;47.590;7.666;2024-03-02T02:30:24;8.70;99.90
31038;DHT22;17702;47.590;7.666;2024-03-02T02:32:49;8.70;99.90
31038;DHT22;17702;47.590;7.666;2024-03-02T02:35:15;8.70;99.90
31038;DHT22;17702;47.590;7.666;2024-03-02T02:37:41;8.70;99.90
31038;DHT22;17702;47.590;7.666;2024-03-02T02:40:07;8.70;99.90
31038;DHT22;17702;47.590;7.666;2024-03-02T02:42:33;8.70;99.90
31038;DHT22;17702;47.590;7.666;2024-03-02T02:44:58;8.70;99.90
31038;DHT22;17702;47.590;7.666;2024-03-02T02:47:24;8.70;99.90
31038;DHT22;17702;47.590;7.666;2024-03-02T02:49:50;8.60;99.90
31038;DHT22;17702;47.590;7.666;2024-03-02T02:52:16;8.60;99.90
31038;DHT22;17702;47.590;7.666;2024-03-02T02:54:41;8.50;99.90
31038;DHT22;17702;47.590;7.666;2024-03-02T02:57:07;8.50;99.90
31038;DHT22;17702;47.590;7.666;2024-03-02T02:59:32;8.40;99.90
31038;DHT22;17702;47.590;7.666;2024-03-02T03:01:58;8.50;99.90
31038;DHT22;17702;47.590;7.666;2024-03-02T03:04:24;8.50;99.90
31038;DHT22;17702;47.590;7.666;2024-03-02T03:06:49;8.40;99.90
31038;DHT22;17702;47.590;7.666;2024-03-02T03:09:15;8.30;99.90
31038;DHT22;17702;47.590;7.666;2024-03-02T03:11:41;8.30;99.90
31038;DHT22;17702;47.590;7.666;2024-03-02T03:14:06;8.30;99.90
31038;DHT22;17702;47.590;7.666;2024-03-02T03:16:32;8.30;99.90
31038;DHT22;17702;47.590;7.666;2024-03-02T03:18:57;8.30;99.90
31038;DHT22;17702;47.590;7.666;2024-03-02T03:21:23;8.30;99.90
31038;DHT22;17702;47.590;7.666;2024-03-02T03:23:48;8.40;99.90
31038;DHT22;17702;47.590;7.666;2024-03-02T03:26:14;8.40;99.90
31038;DHT22;17702;47.590;7.666;2024-03-02T03:28:39;8.40;99.90
31038;DHT22;17702;47.590;7.666;2024-03-02T03:31:05;8.40;99.90
31038;DHT22;17702;47.590;7.666;2024-03-02T03:33:31;8.40;99.90
31038;DHT22;17702;47.590;7.666;2024-03-02T03:35:57;8.40;99.90
31038;DHT22;17702;47.590;7.666;2024-03-02T03:38:22;8.30;99.90
31038;DHT22;17702;47.590;7.666;2024-03-02T03:40:48;8.30;99.90
31038;DHT22;17702;47.590;7.666;2024-03-02T03:43:13;8.30;99.90
31038;DHT22;17702;47.590;7.666;2024-03-02T03:45:39;8.20;99.90
31038;DHT22;17702;47.590;7.666;2024-03-02T03:48:04;8.10;99.90
31038;DHT22;17702;47.590;7.666;2024-03-02T03:50:30;8.20;99.90
31038;DHT22;17702;47.590;7.666;2024-03-02T03:52:56;8.20;99.90
31038;DHT22;17702;47.590;7.666;2024-03-02T03:55:21;8.20;99.90
31038;DHT22;17702;47.590;7.666;2024-03-02T03:57:47;8.10;99.90
31038;DHT22;17702;47.590;7.666;2024-03-02T04:00:13;8.10;99.90
31038;DHT22;17702;47.590;7.666;2024-03-02T04:02:39;8.20;99.90
31038;DHT22;17702;47.590;7.666;2024-03-02T04:05:05;8.20;99.90
31038;DHT22;17702;47.590;7.666;2024-03-02T04:07:37;8.20;99.90
31038;DHT22;17702;47.590;7.666;2024-03-02T04:10:07;8.30;99.90
31038;DHT22;17702;47.590;7.666;2024-03-02T04:12:34;8.30;99.90
31038;DHT22;17702;47.590;7.666;2024-03-02T04:15:00;8.30;99.90
31038;DHT22;17702;47.590;7.666;2024-03-02T04:17:27;8.20;99.90
31038;DHT22;17702;47.590;7.666;2024-03-02T04:19:52;8.20;99.90
31038;DHT22;17702;47.590;7.666;2024-03-02T04:22:18;8.20;99.90
31038;DHT22;17702;47.590;7.666;2024-03-02T04:24:43;8.20;99.90
31038;DHT22;17702;47.590;7.666;2024-03-02T04:27:09;8.30;99.90
31038;DHT22;17702;47.590;7.666;2024-03-02T04:29:34;8.20;99.90
31038;DHT22;17702;47.590;7.666;2024-03-02T04:32:00;8.30;99.90
31038;DHT22;17702;47.590;7.666;2024-03-02T04:34:25;8.30;99.90
31038;DHT22;17702;47.590;7.666;2024-03-02T04:36:51;8.30;99.90
31038;DHT22;17702;47.590;7.666;2024-03-02T04:39:17;8.20;99.90
31038;DHT22;17702;47.590;7.666;2024-03-02T04:41:42;8.20;99.90
31038;DHT22;17702;47.590;7.666;2024-03-02T04:44:08;8.30;99.90
31038;DHT22;17702;47.590;7.666;2024-03-02T04:46:33;8.30;99.90
31038;DHT22;17702;47.590;7.666;2024-03-02T04:48:59;8.40;99.90
31038;DHT22;17702;47.590;7.666;2024-03-02T04:51:24;8.50;99.90
31038;DHT22;17702;47.590;7.666;2024-03-02T04:53:50;8.40;99.90
31038;DHT22;17702;47.590;7.666;2024-03-02T04:56:15;8.40;99.90
31038;DHT22;17702;47.590;7.666;2024-03-02T04:59:08;8.40;99.90
31038;DHT22;17702;47.590;7.666;2024-03-02T05:01:34;8.50;99.90
31038;DHT22;17702;47.590;7.666;2024-03-02T05:03:59;8.50;99.90
31038;DHT22;17702;47.590;7.666;2024-03-02T05:06:25;8.50;99.90
31038;DHT22;17702;47.590;7.666;2024-03-02T05:08:51;8.40;99.90
31038;DHT22;17702;47.590;7.666;2024-03-02T05:11:16;8.40;99.90
31038;DHT22;17702;47.590;7.666;2024-03-02T05:14:14;8.40;99.90
31038;DHT22;17702;47.590;7.666;2024-03-02T05:16:39;8.40;99.90
31038;DHT22;17702;47.590;7.666;2024-03-02T05:19:07;8.40;99.90
31038;DHT22;17702;47.590;7.666;2024-03-02T05:21:33;8.30;99.90
31038;DHT22;17702;47.590;7.666;2024-03-02T05:23:59;8.30;99.90
31038;DHT22;17702;47.590;7.666;2024-03-02T05:26:25;8.30;99.90
31038;DHT22;17702;47.590;7.666;2024-03-02T05:28:50;8.30;99.90
31038;DHT22;17702;47.590;7.666;2024-03-02T05:31:17;8.20;99.90
31038;DHT22;17702;47.590;7.666;2024-03-02T05:33:43;8.20;99.90
31038;DHT22;17702;47.590;7.666;2024-03-02T05:36:09;8.30;99.90
31038;DHT22;17702;47.590;7.666;2024-03-02T05:38:35;8.20;99.90
31038;DHT22;17702;47.590;7.666;2024-03-02T05:41:01;8.10;99.90
31038;DHT22;17702;47.590;7.666;2024-03-02T05:43:27;8.10;99.90
31038;DHT22;17702;47.590;7.666;2024-03-02T05:45:52;8.20;99.90
31038;DHT22;17702;47.590;7.666;2024-03-02T05:48:18;8.20;99.90
31038;DHT22;17702;47.590;7.666;2024-03-02T05:50:43;8.30;99.90
31038;DHT22;17702;47.590;7.666;2024-03-02T05:53:09;8.30;99.90
31038;DHT22;17702;47.590;7.666;2024-03-02T05:55:34;8.30;99.90
31038;DHT22;17702;47.590;7.666;2024-03-02T05:58:00;8.40;99.90
31038;DHT22;17702;47.590;7.666;2024-03-02T06:00:31;8.40;99.90
31038;DHT22;17702;47.590;7.666;2024-03-02T06:02:57;8.40;99.90
31038;DHT22;17702;47.590;7.666;2024-03-02T06:05:23;8.40;99.90
31038;DHT22;17702;47.590;7.666;2024-03-02T06:07:50;8.30;99.90
31038;DHT22;17702;47.590;7.666;2024-03-02T06:10:15;8.30;99.90
31038;DHT22;17702;47.590;7.666;2024-03-02T06:12:41;8.30;99.90
31038;DHT22;17702;47.590;7.666;2024-03-02T06:15:07;8.30;99.90
31038;DHT22;17702;47.590;7.666;2024-03-02T06:17:35;8.40;99.90
31038;DHT22;17702;47.590;7.666;2024-03-02T06:20:00;8.40;99.90
31038;DHT22;17702;47.590;7.666;2024-03-02T06:22:26;8.30;99.90
31038;DHT22;17702;47.590;7.666;2024-03-02T06:24:51;8.30;99.90
31038;DHT22;17702;47.590;7.666;2024-03-02T06:27:17;8.30;99.90
31038;DHT22;17702;47.590;7.666;2024-03-02T06:29:42;8.30;99.90
31038;DHT22;17702;47.590;7.666;2024-03-02T06:32:08;8.30;99.90
31038;DHT22;17702;47.590;7.666;2024-03-02T06:34:33;8.30;99.90
31038;DHT22;17702;47.590;7.666;2024-03-02T06:36:59;8.20;99.90
31038;DHT22;17702;47.590;7.666;2024-03-02T06:39:25;8.10;99.90
31038;DHT22;17702;47.590;7.666;2024-03-02T06:41:51;8.10;99.90
31038;DHT22;17702;47.590;7.666;2024-03-02T06:44:17;8.00;99.90
31038;DHT22;17702;47.590;7.666;2024-03-02T06:46:42;8.00;99.90
31038;DHT22;17702;47.590;7.666;2024-03-02T06:49:08;8.00;99.90
31038;DHT22;17702;47.590;7.666;2024-03-02T06:51:35;7.90;99.90
31038;DHT22;17702;47.590;7.666;2024-03-02T06:54:01;8.00;99.90
31038;DHT22;17702;47.590;7.666;2024-03-02T06:56:27;8.10;99.90
31038;DHT22;17702;47.590;7.666;2024-03-02T06:58:52;8.20;99.90
31038;DHT22;17702;47.590;7.666;2024-03-02T07:01:18;8.20;99.90
31038;DHT22;17702;47.590;7.666;2024-03-02T07:03:43;8.30;99.90
31038;DHT22;17702;47.590;7.666;2024-03-02T07:06:09;8.30;99.90
31038;DHT22;17702;47.590;7.666;2024-03-02T07:08:35;8.30;99.90
31038;DHT22;17702;47.590;7.666;2024-03-02T07:11:00;8.30;99.90
31038;DHT22;17702;47.590;7.666;2024-03-02T07:13:26;8.30;99.90
31038;DHT22;17702;47.590;7.666;2024-03-02T07:15:52;8.20;99.90
31038;DHT22;17702;47.590;7.666;2024-03-02T07:18:30;8.30;99.90
31038;DHT22;17702;47.590;7.666;2024-03-02T07:20:56;8.30;99.90
31038;DHT22;17702;47.590;7.666;2024-03-02T07:23:24;8.20;99.90
31038;DHT22;17702;47.590;7.666;2024-03-02T07:25:53;8.10;99.90
31038;DHT22;17702;47.590;7.666;2024-03-02T07:28:22;8.10;99.90
31038;DHT22;17702;47.590;7.666;2024-03-02T07:30:57;8.10;99.90
31038;DHT22;17702;47.590;7.666;2024-03-02T07:33:24;8.10;99.90
31038;DHT22;17702;47.590;7.666;2024-03-02T07:35:49;8.00;99.90
31038;DHT22;17702;47.590;7.666;2024-03-02T07:38:15;8.00;99.90
31038;DHT22;17702;47.590;7.666;2024-03-02T07:40:40;8.10;99.90
31038;DHT22;17702;47.590;7.666;2024-03-02T07:43:06;8.30;99.90
31038;DHT22;17702;47.590;7.666;2024-03-02T07:45:32;8.40;99.90
31038;DHT22;17702;47.590;7.666;2024-03-02T07:47:57;8.40;99.90
31038;DHT22;17702;47.590;7.666;2024-03-02T07:50:23;8.40;99.90
31038;DHT22;17702;47.590;7.666;2024-03-02T07:52:49;8.50;99.90
31038;DHT22;17702;47.590;7.666;2024-03-02T07:55:14;8.60;99.90
31038;DHT22;17702;47.590;7.666;2024-03-02T07:57:40;8.70;99.90
31038;DHT22;17702;47.590;7.666;2024-03-02T08:00:06;8.80;99.90
31038;DHT22;17702;47.590;7.666;2024-03-02T08:02:32;8.90;99.90
31038;DHT22;17702;47.590;7.666;2024-03-02T08:04:57;9.00;99.90
31038;DHT22;17702;47.590;7.666;2024-03-02T08:07:23;9.10;99.90
31038;DHT22;17702;47.590;7.666;2024-03-02T08:09:48;9.10;99.90
31038;DHT22;17702;47.590;7.666;2024-03-02T08:12:14;9.20;99.90
31038;DHT22;17702;47.590;7.666;2024-03-02T08:14:40;9.20;99.90
31038;DHT22;17702;47.590;7.666;2024-03-02T08:17:05;9.20;99.90
31038;DHT22;17702;47.590;7.666;2024-03-02T08:19:35;9.30;99.90
31038;DHT22;17702;47.590;7.666;2024-03-02T08:22:01;9.30;99.90
31038;DHT22;17702;47.590;7.666;2024-03-02T08:24:26;9.30;99.90
31038;DHT22;17702;47.590;7.666;2024-03-02T08:26:52;9.20;99.90
31038;DHT22;17702;47.590;7.666;2024-03-02T08:29:18;9.20;99.90
31038;DHT22;17702;47.590;7.666;2024-03-02T08:31:43;9.20;99.90
31038;DHT22;17702;47.590;7.666;2024-03-02T08:34:09;9.20;99.90
31038;DHT22;17702;47.590;7.666;2024-03-02T08:36:34;9.10;99.90
31038;DHT22;17702;47.590;7.666;2024-03-02T08:39:01;9.10;99.90
31038;DHT22;17702;47.590;7.666;2024-03-02T08:41:27;9.10;99.90
31038;DHT22;17702;47.590;7.666;2024-03-02T08:43:53;9.20;99.90
31038;DHT22;17702;47.590;7.666;2024-03-02T08:46:18;9.30;99.90
31038;DHT22;17702;47.590;7.666;2024-03-02T08:48:44;9.30;99.90
31038;DHT22;17702;47.590;7.666;2024-03-02T08:51:09;9.30;99.90
31038;DHT22;17702;47.590;7.666;2024-03-02T08:53:36;9.30;99.90
31038;DHT22;17702;47.590;7.666;2024-03-02T08:56:02;9.50;99.90
31038;DHT22;17702;47.590;7.666;2024-03-02T08:58:27;9.50;99.90
31038;DHT22;17702;47.590;7.666;2024-03-02T09:00:53;9.60;99.90
31038;DHT22;17702;47.590;7.666;2024-03-02T09:03:19;9.70;99.90
31038;DHT22;17702;47.590;7.666;2024-03-02T09:05:45;9.80;99.90
31038;DHT22;17702;47.590;7.666;2024-03-02T09:08:10;9.80;99.90
31038;DHT22;17702;47.590;7.666;2024-03-02T09:10:36;9.80;99.90
31038;DHT22;17702;47.590;7.666;2024-03-02T09:13:03;9.90;99.90
31038;DHT22;17702;47.590;7.666;2024-03-02T09:15:29;9.90;99.90
31038;DHT22;17702;47.590;7.666;2024-03-02T09:17:55;10.00;99.90
31038;DHT22;17702;47.590;7.666;2024-03-02T09:20:20;10.10;99.90
31038;DHT22;17702;47.590;7.666;2024-03-02T09:22:46;10.20;99.90
31038;DHT22;17702;47.590;7.666;2024-03-02T09:25:13;10.30;99.90
31038;DHT22;17702;47.590;7.666;2024-03-02T09:27:39;10.30;99.90
31038;DHT22;17702;47.590;7.666;2024-03-02T09:30:08;10.40;99.90
31038;DHT22;17702;47.590;7.666;2024-03-02T09:32:34;10.50;99.90
31038;DHT22;17702;47.590;7.666;2024-03-02T09:34:59;10.60;99.90
31038;DHT22;17702;47.590;7.666;2024-03-02T09:37:26;10.60;99.90
31038;DHT22;17702;47.590;7.666;2024-03-02T09:39:52;10.70;99.90
31038;DHT22;17702;47.590;7.666;2024-03-02T09:42:17;10.80;99.90
31038;DHT22;17702;47.590;7.666;2024-03-02T09:44:43;10.80;99.90
31038;DHT22;17702;47.590;7.666;2024-03-02T09:47:09;10.90;99.90
31038;DHT22;17702;47.590;7.666;2024-03-02T09:49:34;11.00;99.90
31038;DHT22;17702;47.590;7.666;2024-03-02T09:52:01;11.00;99.90
31038;DHT22;17702;47.590;7.666;2024-03-02T09:54:28;11.00;99.90
31038;DHT22;17702;47.590;7.666;2024-03-02T09:56:54;11.10;99.90
31038;DHT22;17702;47.590;7.666;2024-03-02T09:59:20;11.10;99.90
31038;DHT22;17702;47.590;7.666;2024-03-02T10:02:04;11.20;99.90
31038;DHT22;17702;47.590;7.666;2024-03-02T10:04:32;11.30;99.90
31038;DHT22;17702;47.590;7.666;2024-03-02T10:07:25;11.30;99.90
31038;DHT22;17702;47.590;7.666;2024-03-02T10:09:50;11.40;99.90
31038;DHT22;17702;47.590;7.666;2024-03-02T10:12:18;11.50;99.90
31038;DHT22;17702;47.590;7.666;2024-03-02T10:14:44;11.60;99.90
31038;DHT22;17702;47.590;7.666;2024-03-02T10:17:11;11.80;99.90
31038;DHT22;17702;47.590;7.666;2024-03-02T10:19:38;12.00;99.90
31038;DHT22;17702;47.590;7.666;2024-03-02T10:22:08;12.20;99.40
31038;DHT22;17702;47.590;7.666;2024-03-02T10:24:36;12.50;99.90
31038;DHT22;17702;47.590;7.666;2024-03-02T10:27:16;12.80;99.10
31038;DHT22;17702;47.590;7.666;2024-03-02T10:29:41;12.90;98.10
31038;DHT22;17702;47.590;7.666;2024-03-02T10:32:11;13.10;98.20
31038;DHT22;17702;47.590;7.666;2024-03-02T10:34:37;13.20;98.70
31038;DHT22;17702;47.590;7.666;2024-03-02T10:37:03;13.30;96.30
31038;DHT22;17702;47.590;7.666;2024-03-02T10:39:29;13.50;95.40
31038;DHT22;17702;47.590;7.666;2024-03-02T10:41:57;13.50;95.50
31038;DHT22;17702;47.590;7.666;2024-03-02T10:44:23;13.70;95.60
31038;DHT22;17702;47.590;7.666;2024-03-02T10:46:51;13.80;95.30
31038;DHT22;17702;47.590;7.666;2024-03-02T10:49:19;14.10;98.00
31038;DHT22;17702;47.590;7.666;2024-03-02T10:51:46;14.40;97.10
31038;DHT22;17702;47.590;7.666;2024-03-02T10:54:11;14.70;92.80
31038;DHT22;17702;47.590;7.666;2024-03-02T10:56:41;14.80;91.20
31038;DHT22;17702;47.590;7.666;2024-03-02T10:59:24;14.80;92.60
31038;DHT22;17702;47.590;7.666;2024-03-02T11:01:56;15.00;92.60
31038;DHT22;17702;47.590;7.666;2024-03-02T11:04:25;15.10;92.50
31038;DHT22;17702;47.590;7.666;2024-03-02T11:06:51;15.30;91.40
31038;DHT22;17702;47.590;7.666;2024-03-02T11:09:22;15.40;91.20
31038;DHT22;17702;47.590;7.666;2024-03-02T11:14:54;15.50;89.00
31038;DHT22;17702;47.590;7.666;2024-03-02T11:17:21;15.40;88.40
31038;DHT22;17702;47.590;7.666;2024-03-02T11:19:47;15.30;86.70
31038;DHT22;17702;47.590;7.666;2024-03-02T11:22:14;15.30;88.50
31038;DHT22;17702;47.590;7.666;2024-03-02T11:24:48;15.30;88.00
31038;DHT22;17702;47.590;7.666;2024-03-02T11:27:14;15.30;84.80
31038;DHT22;17702;47.590;7.666;2024-03-02T11:32:17;15.40;85.50
31038;DHT22;17702;47.590;7.666;2024-03-02T11:34:47;15.50;86.20
31038;DHT22;17702;47.590;7.666;2024-03-02T11:37:16;15.60;87.30
31038;DHT22;17702;47.590;7.666;2024-03-02T11:39:44;15.60;85.40
31038;DHT22;17702;47.590;7.666;2024-03-02T11:42:11;15.70;83.40
31038;DHT22;17702;47.590;7.666;2024-03-02T11:44:38;15.60;83.50
31038;DHT22;17702;47.590;7.666;2024-03-02T11:47:08;15.50;84.00
31038;DHT22;17702;47.590;7.666;2024-03-02T11:49:49;15.50;83.30
31038;DHT22;17702;47.590;7.666;2024-03-02T11:52:16;15.40;86.70
31038;DHT22;17702;47.590;7.666;2024-03-02T11:54:44;15.50;86.80
31038;DHT22;17702;47.590;7.666;2024-03-02T11:57:22;15.60;82.50
31038;DHT22;17702;47.590;7.666;2024-03-02T11:59:49;15.70;82.60
31038;DHT22;17702;47.590;7.666;2024-03-02T12:02:21;15.70;84.00
31038;DHT22;17702;47.590;7.666;2024-03-02T12:04:48;15.70;82.30
31038;DHT22;17702;47.590;7.666;2024-03-02T12:07:21;15.70;79.00
31038;DHT22;17702;47.590;7.666;2024-03-02T12:09:59;15.70;82.10
31038;DHT22;17702;47.590;7.666;2024-03-02T12:12:25;15.60;80.00
31038;DHT22;17702;47.590;7.666;2024-03-02T12:14:52;15.70;82.60
31038;DHT22;17702;47.590;7.666;2024-03-02T12:17:20;15.80;77.40
31038;DHT22;17702;47.590;7.666;2024-03-02T12:19:46;15.80;77.20
31038;DHT22;17702;47.590;7.666;2024-03-02T12:22:12;15.60;76.10
31038;DHT22;17702;47.590;7.666;2024-03-02T12:24:37;15.50;79.20
31038;DHT22;17702;47.590;7.666;2024-03-02T12:27:05;15.30;79.20
31038;DHT22;17702;47.590;7.666;2024-03-02T12:29:31;15.30;78.50
31038;DHT22;17702;47.590;7.666;2024-03-02T12:31:56;15.10;77.60
31038;DHT22;17702;47.590;7.666;2024-03-02T12:34:22;15.00;79.40
31038;DHT22;17702;47.590;7.666;2024-03-02T12:36:49;14.90;78.30
31038;DHT22;17702;47.590;7.666;2024-03-02T12:39:21;14.70;79.80
31038;DHT22;17702;47.590;7.666;2024-03-02T12:41:49;14.60;81.80
31038;DHT22;17702;47.590;7.666;2024-03-02T12:44:16;14.50;81.60
31038;DHT22;17702;47.590;7.666;2024-03-02T12:46:42;14.50;82.00
31038;DHT22;17702;47.590;7.666;2024-03-02T12:49:15;14.60;83.30
31038;DHT22;17702;47.590;7.666;2024-03-02T12:51:45;14.50;82.80
31038;DHT22;17702;47.590;7.666;2024-03-02T12:54:17;14.50;82.90
31038;DHT22;17702;47.590;7.666;2024-03-02T12:56:43;14.50;83.40
31038;DHT22;17702;47.590;7.666;2024-03-02T12:59:19;14.50;83.20
31038;DHT22;17702;47.590;7.666;2024-03-02T13:01:51;14.50;82.70
31038;DHT22;17702;47.590;7.666;2024-03-02T13:04:16;14.40;83.80
31038;DHT22;17702;47.590;7.666;2024-03-02T13:06:42;14.50;83.80
31038;DHT22;17702;47.590;7.666;2024-03-02T13:09:07;14.60;82.20
31038;DHT22;17702;47.590;7.666;2024-03-02T13:11:40;14.60;82.90
31038;DHT22;17702;47.590;7.666;2024-03-02T13:14:06;14.80;82.60
31038;DHT22;17702;47.590;7.666;2024-03-02T13:16:37;14.90;81.80
31038;DHT22;17702;47.590;7.666;2024-03-02T13:19:03;14.90;78.40
31038;DHT22;17702;47.590;7.666;2024-03-02T13:21:28;14.90;80.20
31038;DHT22;17702;47.590;7.666;2024-03-02T13:23:54;14.90;77.30
31038;DHT22;17702;47.590;7.666;2024-03-02T13:26:20;14.80;76.90
31038;DHT22;17702;47.590;7.666;2024-03-02T13:28:45;14.80;76.40
31038;DHT22;17702;47.590;7.666;2024-03-02T13:31:11;14.80;76.80
31038;DHT22;17702;47.590;7.666;2024-03-02T13:33:37;14.90;77.00
31038;DHT22;17702;47.590;7.666;2024-03-02T13:36:03;15.00;76.90
31038;DHT22;17702;47.590;7.666;2024-03-02T13:38:28;15.00;78.20
31038;DHT22;17702;47.590;7.666;2024-03-02T13:40:54;15.10;78.30
31038;DHT22;17702;47.590;7.666;2024-03-02T13:43:20;15.00;77.90
31038;DHT22;17702;47.590;7.666;2024-03-02T13:45:45;15.10;78.20
31038;DHT22;17702;47.590;7.666;2024-03-02T13:48:11;15.20;76.00
31038;DHT22;17702;47.590;7.666;2024-03-02T13:50:36;15.10;74.90
31038;DHT22;17702;47.590;7.666;2024-03-02T13:53:02;15.00;75.40
31038;DHT22;17702;47.590;7.666;2024-03-02T13:55:28;15.00;76.40
31038;DHT22;17702;47.590;7.666;2024-03-02T13:57:54;15.10;76.70
31038;DHT22;17702;47.590;7.666;2024-03-02T14:00:20;15.00;77.60
31038;DHT22;17702;47.590;7.666;2024-03-02T14:02:46;15.10;75.90
31038;DHT22;17702;47.590;7.666;2024-03-02T14:05:12;15.10;76.30
31038;DHT22;17702;47.590;7.666;2024-03-02T14:07:39;15.10;75.70
31038;DHT22;17702;47.590;7.666;2024-03-02T14:10:05;15.00;76.90
31038;DHT22;17702;47.590;7.666;2024-03-02T14:12:31;15.00;75.00
31038;DHT22;17702;47.590;7.666;2024-03-02T14:14:56;14.90;76.50
31038;DHT22;17702;47.590;7.666;2024-03-02T14:17:24;14.70;76.00
31038;DHT22;17702;47.590;7.666;2024-03-02T14:19:50;14.70;78.50
31038;DHT22;17702;47.590;7.666;2024-03-02T14:22:16;14.70;77.10
31038;DHT22;17702;47.590;7.666;2024-03-02T14:24:43;14.60;77.90
31038;DHT22;17702;47.590;7.666;2024-03-02T14:27:09;14.70;79.50
31038;DHT22;17702;47.590;7.666;2024-03-02T14:29:34;14.80;79.50
31038;DHT22;17702;47.590;7.666;2024-03-02T14:32:06;14.90;77.40
31038;DHT22;17702;47.590;7.666;2024-03-02T14:34:31;14.90;77.30
31038;DHT22;17702;47.590;7.666;2024-03-02T14:36:57;14.90;77.40
31038;DHT22;17702;47.590;7.666;2024-03-02T14:39:22;14.80;79.00
31038;DHT22;17702;47.590;7.666;2024-03-02T14:41:48;14.70;77.30
31038;DHT22;17702;47.590;7.666;2024-03-02T14:44:14;14.70;78.70
31038;DHT22;17702;47.590;7.666;2024-03-02T14:46:40;14.70;78.40
31038;DHT22;17702;47.590;7.666;2024-03-02T14:49:06;14.60;77.10
31038;DHT22;17702;47.590;7.666;2024-03-02T14:51:33;14.60;76.60
31038;DHT22;17702;47.590;7.666;2024-03-02T14:53:58;14.50;77.30
31038;DHT22;17702;47.590;7.666;2024-03-02T14:56:24;14.50;76.00
31038;DHT22;17702;47.590;7.666;2024-03-02T14:58:49;14.40;77.40
31038;DHT22;17702;47.590;7.666;2024-03-02T15:01:16;14.50;76.30
31038;DHT22;17702;47.590;7.666;2024-03-02T15:03:42;14.50;76.60
31038;DHT22;17702;47.590;7.666;2024-03-02T15:06:08;14.60;77.60
31038;DHT22;17702;47.590;7.666;2024-03-02T15:08:33;14.70;75.50
31038;DHT22;17702;47.590;7.666;2024-03-02T15:10:59;14.90;75.90
31038;DHT22;17702;47.590;7.666;2024-03-02T15:13:26;15.10;75.50
31038;DHT22;17702;47.590;7.666;2024-03-02T15:15:52;15.40;75.50
31038;DHT22;17702;47.590;7.666;2024-03-02T15:18:18;15.50;74.90
31038;DHT22;17702;47.590;7.666;2024-03-02T15:20:43;15.70;73.30
31038;DHT22;17702;47.590;7.666;2024-03-02T15:23:09;15.80;73.80
31038;DHT22;17702;47.590;7.666;2024-03-02T15:25:35;15.80;73.20
31038;DHT22;17702;47.590;7.666;2024-03-02T15:28:01;15.70;73.80
31038;DHT22;17702;47.590;7.666;2024-03-02T15:30:26;15.60;73.00
31038;DHT22;17702;47.590;7.666;2024-03-02T15:32:52;15.50;73.70
31038;DHT22;17702;47.590;7.666;2024-03-02T15:35:18;15.50;74.00
31038;DHT22;17702;47.590;7.666;2024-03-02T15:37:43;15.50;72.20
31038;DHT22;17702;47.590;7.666;2024-03-02T15:40:09;15.30;72.80
31038;DHT22;17702;47.590;7.666;2024-03-02T15:42:35;15.20;72.80
31038;DHT22;17702;47.590;7.666;2024-03-02T15:45:01;15.00;73.10